createdAt,value
2022-11-08T00:02:22.816Z,42.00
2022-11-08T00:04:52.188Z,34.80
2022-11-08T00:10:31.829Z,38.38
2022-11-08T00:13:13.988Z,40.70
2022-11-08T00:15:43.294Z,40.63
2022-11-08T00:18:12.927Z,39.80
2022-11-08T00:20:42.209Z,38.28
2022-11-08T00:23:13.996Z,36.45
2022-11-08T00:28:15.519Z,37.25
2022-11-08T00:30:44.936Z,40.22
2022-11-08T00:35:49.209Z,39.28
2022-11-08T00:38:18.541Z,38.92
2022-11-08T00:43:27.363Z,33.00
2022-11-08T00:45:56.590Z,40.67
2022-11-08T00:48:26.147Z,33.80
2022-11-08T00:51:03.883Z,32.55
2022-11-08T00:53:33.572Z,34.47
2022-11-08T00:56:06.911Z,35.47
2022-11-08T00:58:36.568Z,32.75
2022-11-08T01:01:14.018Z,36.85
2022-11-08T01:03:43.499Z,33.92
2022-11-08T01:06:14.192Z,32.38
2022-11-08T01:08:49.395Z,33.35
2022-11-08T01:11:24.643Z,36.42
2022-11-08T01:13:59.939Z,32.17
2022-11-08T01:16:32.663Z,32.90
2022-11-08T01:19:02.367Z,35.53
2022-11-08T01:21:31.833Z,30.27
2022-11-08T01:24:01.038Z,33.90
2022-11-08T01:26:32.759Z,35.00
2022-11-08T01:31:38.535Z,26.27
2022-11-08T01:34:07.833Z,32.90
2022-11-08T01:36:36.956Z,31.58
2022-11-08T01:39:06.558Z,37.85
2022-11-08T01:41:37.676Z,32.03
2022-11-08T01:44:07.355Z,32.30
2022-11-08T01:46:41.991Z,30.05
2022-11-08T01:49:50.296Z,32.08
2022-11-08T01:52:26.753Z,32.70
2022-11-08T01:58:02.448Z,33.22
2022-11-08T02:00:32.146Z,33.35
2022-11-08T02:03:02.784Z,36.83
2022-11-08T02:05:33.160Z,37.80
2022-11-08T02:08:12.893Z,39.33
2022-11-08T02:10:44.467Z,36.20
2022-11-08T02:13:17.646Z,34.85
2022-11-08T02:15:47.000Z,37.85
2022-11-08T02:18:17.676Z,39.08
2022-11-08T02:20:59.832Z,40.20
2022-11-08T02:23:31.948Z,33.72
2022-11-08T02:26:03.836Z,36.47
2022-11-08T02:28:39.487Z,34.67
2022-11-08T02:31:10.943Z,37.22
2022-11-08T02:33:41.009Z,39.20
2022-11-08T02:36:17.728Z,37.20
2022-11-08T02:38:54.959Z,39.65
2022-11-08T02:41:31.190Z,35.50
2022-11-08T02:44:00.458Z,35.20
2022-11-08T02:46:29.669Z,38.05
2022-11-08T02:49:03.918Z,35.53
2022-11-08T02:51:32.988Z,38.65
2022-11-08T02:54:02.845Z,38.90
2022-11-08T02:56:34.054Z,37.85
2022-11-08T02:59:03.348Z,44.97
2022-11-08T03:01:32.648Z,37.20
2022-11-08T03:04:07.383Z,40.00
2022-11-08T03:06:36.544Z,36.13
2022-11-08T03:09:06.190Z,39.53
2022-11-08T03:11:42.349Z,38.75
2022-11-08T03:14:11.632Z,40.53
2022-11-08T03:16:40.763Z,39.83
2022-11-08T03:19:11.756Z,37.40
2022-11-08T03:21:41.176Z,32.97
2022-11-08T03:24:18.059Z,38.97
2022-11-08T03:26:49.471Z,39.70
2022-11-08T03:29:18.723Z,39.03
2022-11-08T03:31:52.951Z,39.67
2022-11-08T03:34:22.429Z,45.47
2022-11-08T03:36:52.700Z,39.72
2022-11-08T03:39:21.988Z,41.00
2022-11-08T03:41:53.340Z,39.15
2022-11-08T03:44:25.114Z,38.38
2022-11-08T03:46:59.994Z,39.85
2022-11-08T03:49:29.858Z,39.13
2022-11-08T03:52:10.008Z,37.88
2022-11-08T03:54:39.526Z,42.88
2022-11-08T03:57:14.255Z,40.00
2022-11-08T03:59:45.909Z,41.20
2022-11-08T04:02:20.698Z,39.10
2022-11-08T04:04:50.909Z,40.85
2022-11-08T04:07:20.048Z,38.80
2022-11-08T04:09:54.403Z,38.40
2022-11-08T04:12:38.609Z,38.90
2022-11-08T04:15:19.348Z,39.15
2022-11-08T04:18:08.312Z,37.47
2022-11-08T04:23:40.130Z,35.40
2022-11-08T04:26:11.271Z,38.17
2022-11-08T04:28:43.948Z,39.17
2022-11-08T04:31:15.462Z,38.75
2022-11-08T04:33:45.004Z,34.97
2022-11-08T04:36:15.520Z,40.40
2022-11-08T04:38:45.115Z,35.63
2022-11-08T04:43:54.858Z,33.20
2022-11-08T04:46:26.620Z,31.15
2022-11-08T04:51:28.465Z,32.20
2022-11-08T04:53:59.195Z,26.92
2022-11-08T04:56:29.907Z,28.48
2022-11-08T04:59:02.571Z,31.00
2022-11-08T05:01:33.270Z,33.53
2022-11-08T05:04:07.752Z,31.17
2022-11-08T05:06:37.211Z,30.65
2022-11-08T05:09:13.830Z,30.48
2022-11-08T05:11:43.097Z,31.73
2022-11-08T05:14:19.282Z,28.95
2022-11-08T05:16:48.875Z,29.88
2022-11-08T05:19:43.869Z,29.77
2022-11-08T05:22:39.981Z,32.80
2022-11-08T05:25:10.281Z,28.67
2022-11-08T05:27:39.420Z,30.05
2022-11-08T05:30:11.796Z,27.33
2022-11-08T05:32:41.049Z,29.23
2022-11-08T05:35:10.348Z,29.27
2022-11-08T05:37:43.878Z,26.20
2022-11-08T05:40:13.849Z,26.67
2022-11-08T05:42:44.980Z,27.90
2022-11-08T05:45:16.268Z,25.88
2022-11-08T05:47:49.182Z,28.95
2022-11-08T05:50:20.154Z,27.95
2022-11-08T05:52:54.337Z,23.83
2022-11-08T05:55:23.786Z,24.35
2022-11-08T05:57:54.560Z,31.80
2022-11-08T06:00:26.739Z,27.23
2022-11-08T06:02:55.990Z,22.38
2022-11-08T06:05:25.067Z,22.00
2022-11-08T06:07:56.654Z,21.85
2022-11-08T06:10:26.202Z,24.48
2022-11-08T06:12:59.991Z,22.83
2022-11-08T06:15:31.369Z,26.73
2022-11-08T06:18:04.180Z,33.67
2022-11-08T06:20:34.589Z,25.92
2022-11-08T06:23:04.010Z,22.67
2022-11-08T06:25:41.105Z,25.98
2022-11-08T06:28:14.142Z,25.83
2022-11-08T06:30:45.442Z,24.63
2022-11-08T06:33:20.186Z,22.88
2022-11-08T06:35:54.946Z,22.42
2022-11-08T06:38:24.262Z,28.73
2022-11-08T06:40:53.652Z,26.35
2022-11-08T06:43:28.346Z,23.08
2022-11-08T06:46:02.550Z,23.40
2022-11-08T06:48:35.843Z,25.98
2022-11-08T06:51:10.690Z,22.05
2022-11-08T06:53:40.397Z,26.00
2022-11-08T06:56:09.956Z,27.55
2022-11-08T06:58:39.247Z,25.05
2022-11-08T07:01:13.192Z,27.60
2022-11-08T07:03:43.236Z,23.98
2022-11-08T07:06:12.520Z,25.48
2022-11-08T07:08:41.678Z,26.30
2022-11-08T07:11:10.960Z,23.30
2022-11-08T07:13:40.130Z,26.60
2022-11-08T07:16:11.567Z,29.20
2022-11-08T07:18:40.956Z,20.73
2022-11-08T07:21:15.116Z,23.55
2022-11-08T07:23:44.647Z,26.40
2022-11-08T07:26:13.695Z,24.83
2022-11-08T07:28:43.037Z,26.77
2022-11-08T07:31:14.815Z,24.55
2022-11-08T07:33:49.257Z,26.45
2022-11-08T07:36:18.411Z,23.77
2022-11-08T07:39:02.473Z,29.23
2022-11-08T07:41:34.532Z,27.40
2022-11-08T07:44:08.849Z,25.90
2022-11-08T07:46:40.125Z,26.63
2022-11-08T07:49:09.265Z,26.83
2022-11-08T07:51:38.452Z,25.25
2022-11-08T07:54:07.801Z,29.40
2022-11-08T07:56:37.068Z,24.10
2022-11-08T07:59:07.960Z,24.83
2022-11-08T08:01:49.595Z,24.73
2022-11-08T08:04:18.776Z,24.00
2022-11-08T08:06:47.897Z,24.05
2022-11-08T08:11:53.930Z,25.15
2022-11-08T08:14:23.788Z,22.92
2022-11-08T08:16:55.175Z,23.35
2022-11-08T08:19:24.361Z,24.98
2022-11-08T08:21:58.788Z,23.77
2022-11-08T08:24:28.539Z,22.08
2022-11-08T08:26:57.640Z,23.77
2022-11-08T08:29:27.053Z,22.98
2022-11-08T08:31:58.277Z,22.45
2022-11-08T08:34:27.736Z,24.08
2022-11-08T08:36:56.860Z,21.33
2022-11-08T08:39:26.571Z,19.63
2022-11-08T08:44:39.981Z,25.52
2022-11-08T08:47:11.038Z,23.45
2022-11-08T08:49:40.195Z,19.08
2022-11-08T08:52:10.847Z,19.17
2022-11-08T08:54:45.035Z,17.67
2022-11-08T08:57:14.520Z,19.48
2022-11-08T09:02:39.776Z,18.92
2022-11-08T09:05:13.123Z,17.60
2022-11-08T09:07:43.372Z,17.50
2022-11-08T09:10:13.048Z,19.58
2022-11-08T09:12:42.221Z,16.85
2022-11-08T09:15:12.547Z,18.75
2022-11-08T09:17:43.925Z,17.80
2022-11-08T09:20:14.528Z,18.65
2022-11-08T09:22:43.690Z,15.63
2022-11-08T09:25:13.196Z,15.85
2022-11-08T09:27:42.552Z,18.23
2022-11-08T09:30:12.015Z,15.85
2022-11-08T09:35:32.993Z,14.07
2022-11-08T09:38:02.337Z,16.67
2022-11-08T09:40:35.173Z,17.67
2022-11-08T09:43:22.757Z,17.02
2022-11-08T09:45:55.566Z,15.70
2022-11-08T09:48:31.735Z,14.73
2022-11-08T09:51:06.011Z,18.15
2022-11-08T09:53:42.786Z,15.25
2022-11-08T09:56:18.437Z,16.80
2022-11-08T09:58:53.943Z,15.30
2022-11-08T10:01:27.283Z,17.73
2022-11-08T10:04:01.905Z,15.98
2022-11-08T10:06:54.058Z,18.90
2022-11-08T10:09:46.201Z,17.52
2022-11-08T10:12:23.844Z,16.10
2022-11-08T10:15:07.649Z,20.35
2022-11-08T10:18:06.740Z,17.08
2022-11-08T10:20:54.570Z,17.55
2022-11-08T10:23:29.917Z,17.50
2022-11-08T10:26:02.553Z,17.83
2022-11-08T10:28:37.863Z,17.08
2022-11-08T10:31:08.280Z,16.92
2022-11-08T10:33:43.527Z,17.80
2022-11-08T10:36:21.993Z,17.30
2022-11-08T10:38:59.382Z,15.35
2022-11-08T10:41:36.709Z,15.70
2022-11-08T10:44:08.344Z,15.88
2022-11-08T10:46:44.425Z,13.15
2022-11-08T10:49:18.485Z,16.13
2022-11-08T10:51:58.755Z,15.77
2022-11-08T10:54:43.757Z,12.25
2022-11-08T10:57:15.112Z,16.30
2022-11-08T10:59:45.279Z,14.70
2022-11-08T11:02:30.303Z,13.95
2022-11-08T11:05:21.776Z,14.35
2022-11-08T11:08:04.079Z,12.60
2022-11-08T11:10:34.964Z,13.98
2022-11-08T11:13:12.619Z,15.85
2022-11-08T11:15:48.335Z,11.85
2022-11-08T11:18:25.852Z,13.27
2022-11-08T11:21:11.560Z,13.48
2022-11-08T11:23:46.152Z,11.88
2022-11-08T11:26:29.480Z,11.90
2022-11-08T11:29:12.835Z,14.85
2022-11-08T11:31:43.691Z,11.18
2022-11-08T11:34:44.672Z,13.45
2022-11-08T11:37:22.365Z,11.55
2022-11-08T11:40:05.331Z,9.23
2022-11-08T11:42:48.092Z,9.27
2022-11-08T11:45:21.682Z,9.82
2022-11-08T11:47:54.020Z,11.50
2022-11-08T11:50:31.008Z,11.27
2022-11-08T11:53:04.157Z,10.82
2022-11-08T11:55:51.046Z,10.15
2022-11-08T11:58:38.474Z,8.25
2022-11-08T12:01:18.383Z,9.55
2022-11-08T12:04:03.696Z,9.77
2022-11-08T12:06:44.861Z,9.93
2022-11-08T12:09:30.094Z,10.50
2022-11-08T12:12:16.373Z,9.23
2022-11-08T12:15:02.450Z,8.35
2022-11-08T12:18:09.058Z,9.48
2022-11-08T12:20:52.390Z,7.78
2022-11-08T12:23:39.691Z,9.60
2022-11-08T12:26:20.962Z,9.98
2022-11-08T12:29:04.980Z,9.70
2022-11-08T12:31:37.370Z,7.28
2022-11-08T12:34:20.542Z,8.35
2022-11-08T12:37:05.612Z,7.88
2022-11-08T12:39:40.486Z,10.25
2022-11-08T12:42:22.495Z,11.10
2022-11-08T12:45:15.024Z,6.38
2022-11-08T12:47:48.452Z,9.98
2022-11-08T12:55:48.998Z,8.55
2022-11-08T12:58:34.499Z,7.82
2022-11-08T13:01:08.600Z,9.23
2022-11-08T13:04:00.561Z,8.13
2022-11-08T13:06:41.185Z,7.82
2022-11-08T13:09:25.562Z,6.97
2022-11-08T13:12:04.147Z,6.35
2022-11-08T13:14:40.043Z,9.75
2022-11-08T13:17:26.442Z,9.90
2022-11-08T13:20:04.494Z,7.80
2022-11-08T13:23:02.048Z,9.15
2022-11-08T13:25:41.711Z,8.57
2022-11-08T13:28:41.156Z,9.35
2022-11-08T13:31:32.625Z,6.47
2022-11-08T13:34:27.040Z,9.05
2022-11-08T13:37:08.033Z,7.10
2022-11-08T13:39:59.816Z,7.93
2022-11-08T13:42:41.521Z,6.57
2022-11-08T13:45:36.690Z,7.38
2022-11-08T13:48:22.883Z,13.25
2022-11-08T13:50:54.518Z,7.57
2022-11-08T13:53:49.370Z,9.07
2022-11-08T13:56:52.352Z,8.43
2022-11-08T13:59:51.410Z,8.63
2022-11-08T14:02:39.307Z,8.70
2022-11-08T14:05:33.327Z,6.53
2022-11-08T14:11:16.352Z,7.55
2022-11-08T14:14:11.208Z,7.20
2022-11-08T14:16:49.738Z,6.25
2022-11-08T14:19:28.362Z,6.18
2022-11-08T14:21:59.744Z,6.55
2022-11-08T14:24:37.256Z,5.80
2022-11-08T14:27:06.632Z,5.85
2022-11-08T14:29:40.819Z,6.63
2022-11-08T14:32:18.905Z,5.28
2022-11-08T14:34:50.093Z,5.60
2022-11-08T14:37:25.194Z,6.38
2022-11-08T14:39:59.429Z,6.63
2022-11-08T14:42:28.674Z,4.68
2022-11-08T14:45:00.250Z,8.25
2022-11-08T14:47:32.025Z,6.35
2022-11-08T14:50:03.511Z,6.20
2022-11-08T14:52:34.599Z,5.93
2022-11-08T14:55:07.233Z,4.72
2022-11-08T14:57:38.222Z,6.25
2022-11-08T15:00:16.936Z,4.90
2022-11-08T15:02:49.165Z,6.32
2022-11-08T15:05:40.610Z,7.22
2022-11-08T15:08:24.132Z,6.40
2022-11-08T15:11:00.741Z,6.57
2022-11-08T15:13:31.848Z,5.35
2022-11-08T15:16:08.065Z,7.22
2022-11-08T15:18:39.602Z,5.30
2022-11-08T15:21:28.426Z,6.35
2022-11-08T15:24:12.935Z,6.40
2022-11-08T15:27:00.453Z,5.38
2022-11-08T15:29:29.535Z,6.45
2022-11-08T15:32:02.210Z,7.40
2022-11-08T15:34:39.356Z,6.70
2022-11-08T15:37:28.839Z,7.25
2022-11-08T15:40:01.844Z,8.30
2022-11-08T15:42:34.738Z,6.22
2022-11-08T15:45:06.136Z,7.53
2022-11-08T15:50:30.862Z,8.80
2022-11-08T15:53:04.253Z,9.98
2022-11-08T15:55:37.761Z,9.68
2022-11-08T15:58:12.476Z,9.20
2022-11-08T16:00:47.625Z,12.77
2022-11-08T16:03:17.344Z,6.72
2022-11-08T16:05:46.618Z,9.70
2022-11-08T16:08:20.956Z,11.43
2022-11-08T16:10:53.097Z,12.27
2022-11-08T16:15:57.715Z,11.00
2022-11-08T16:18:27.073Z,12.32
2022-11-08T16:20:56.303Z,16.58
2022-11-08T16:23:27.513Z,9.77
2022-11-08T16:26:00.489Z,12.48
2022-11-08T16:28:33.832Z,11.45
2022-11-08T16:31:10.640Z,10.65
2022-11-08T16:33:39.821Z,11.15
2022-11-08T16:36:19.672Z,13.75
2022-11-08T16:38:56.108Z,13.93
2022-11-08T16:41:26.892Z,9.60
2022-11-08T16:43:56.188Z,10.02
2022-11-08T16:46:31.052Z,8.18
2022-11-08T16:49:01.803Z,12.75
2022-11-08T16:51:31.030Z,8.50
2022-11-08T16:54:04.752Z,10.50
2022-11-08T16:56:34.046Z,6.47
2022-11-08T16:59:03.389Z,7.57
2022-11-08T17:01:35.294Z,10.32
2022-11-08T17:06:33.497Z,9.57
2022-11-08T17:09:05.080Z,7.60
2022-11-08T17:11:34.522Z,8.88
2022-11-08T17:14:04.052Z,7.28
2022-11-08T17:16:33.325Z,9.38
2022-11-08T17:19:02.487Z,10.15
2022-11-08T17:21:44.628Z,9.15
2022-11-08T17:24:21.805Z,7.78
2022-11-08T17:26:56.987Z,8.65
2022-11-08T17:29:26.634Z,10.35
2022-11-08T17:31:55.780Z,12.38
2022-11-08T17:34:25.123Z,11.68
2022-11-08T17:36:54.564Z,12.52
2022-11-08T17:39:25.799Z,11.95
2022-11-08T17:42:00.193Z,11.25
2022-11-08T17:44:30.610Z,10.38
2022-11-08T17:46:59.726Z,11.63
2022-11-08T17:49:28.865Z,11.85
2022-11-08T17:51:58.028Z,10.60
2022-11-08T17:54:34.143Z,13.60
2022-11-08T17:57:03.426Z,12.07
2022-11-08T17:59:32.579Z,11.13
2022-11-08T18:02:02.934Z,12.27
2022-11-08T18:04:32.114Z,12.23
2022-11-08T18:07:01.433Z,14.75
2022-11-08T18:09:43.401Z,11.75
2022-11-08T18:12:12.636Z,14.52
2022-11-08T18:14:41.790Z,16.70
2022-11-08T18:17:11.257Z,16.13
2022-11-08T18:19:40.705Z,16.10
2022-11-08T18:22:09.871Z,15.75
2022-11-08T18:24:42.745Z,10.68
2022-11-08T18:27:14.386Z,13.55
2022-11-08T18:29:48.650Z,14.07
2022-11-08T18:32:19.791Z,12.00
2022-11-08T18:34:49.170Z,13.43
2022-11-08T18:37:18.677Z,13.63
2022-11-08T18:39:54.852Z,16.13
2022-11-08T18:42:24.239Z,11.93
2022-11-08T18:44:53.604Z,14.35
2022-11-08T18:47:23.074Z,15.18
2022-11-08T18:49:55.077Z,14.75
2022-11-08T18:52:24.440Z,15.40
2022-11-08T18:54:55.717Z,16.20
2022-11-08T18:57:30.379Z,17.20
2022-11-08T19:00:01.210Z,15.02
2022-11-08T19:02:33.284Z,17.23
2022-11-08T19:05:07.794Z,17.00
2022-11-08T19:07:37.364Z,19.65
2022-11-08T19:10:10.227Z,21.20
2022-11-08T19:12:39.588Z,18.08
2022-11-08T19:15:11.264Z,17.95
2022-11-08T19:17:40.700Z,16.85
2022-11-08T19:20:11.153Z,18.17
2022-11-08T19:22:45.710Z,20.45
2022-11-08T19:25:18.282Z,17.40
2022-11-08T19:27:47.898Z,17.42
2022-11-08T19:30:17.313Z,18.70
2022-11-08T19:32:46.648Z,19.98
2022-11-08T19:35:16.358Z,19.33
2022-11-08T19:37:45.866Z,16.40
2022-11-08T19:40:17.379Z,18.92
2022-11-08T19:42:46.768Z,18.25
2022-11-08T19:45:16.193Z,23.25
2022-11-08T19:47:52.033Z,19.65
2022-11-08T19:50:23.564Z,18.02
2022-11-08T19:52:52.739Z,20.08
2022-11-08T19:55:24.019Z,16.98
2022-11-08T19:57:53.194Z,19.05
2022-11-08T20:00:22.605Z,21.90
2022-11-08T20:02:54.192Z,18.92
2022-11-08T20:05:23.865Z,19.80
2022-11-08T20:08:01.454Z,19.67
2022-11-08T20:10:32.837Z,18.75
2022-11-08T20:13:10.152Z,19.63
2022-11-08T20:15:39.827Z,19.52
2022-11-08T20:18:09.197Z,21.05
2022-11-08T20:20:44.723Z,20.15
2022-11-08T20:23:18.315Z,24.10
2022-11-08T20:25:49.669Z,22.20
2022-11-08T20:28:19.322Z,19.98
2022-11-08T20:30:49.206Z,18.77
2022-11-08T20:33:18.657Z,24.63
2022-11-08T20:35:47.820Z,21.13
2022-11-08T20:38:18.430Z,22.33
2022-11-08T20:40:50.163Z,25.90
2022-11-08T20:43:34.061Z,20.58
2022-11-08T20:46:10.389Z,23.60
2022-11-08T20:48:42.834Z,23.73
2022-11-08T20:53:55.058Z,24.88
2022-11-08T20:56:28.344Z,20.17
2022-11-08T20:58:58.137Z,25.33
2022-11-08T21:01:30.346Z,23.52
2022-11-08T21:04:00.483Z,24.70
2022-11-08T21:06:36.375Z,19.40
2022-11-08T21:09:33.047Z,24.50
2022-11-08T21:12:05.396Z,22.75
2022-11-08T21:17:26.136Z,26.25
2022-11-08T21:20:01.030Z,22.42
2022-11-08T21:22:30.316Z,24.58
2022-11-08T21:25:03.260Z,24.30
2022-11-08T21:27:41.640Z,23.88
2022-11-08T21:30:17.337Z,21.50
2022-11-08T21:32:46.641Z,22.52
2022-11-08T21:35:15.937Z,22.25
2022-11-08T21:37:45.382Z,24.23
2022-11-08T21:40:15.280Z,21.90
2022-11-08T21:42:48.834Z,22.75
2022-11-08T21:45:18.721Z,21.80
2022-11-08T21:47:51.779Z,24.25
2022-11-08T21:50:22.130Z,22.80
2022-11-08T21:52:56.420Z,28.58
2022-11-08T21:55:25.494Z,22.48
2022-11-08T21:57:56.848Z,22.25
2022-11-08T22:00:26.356Z,22.38
2022-11-08T22:02:56.028Z,22.45
2022-11-08T22:05:30.688Z,23.15
2022-11-08T22:08:00.104Z,23.38
2022-11-08T22:10:29.599Z,22.45
2022-11-08T22:15:35.975Z,20.63
2022-11-08T22:18:15.193Z,27.58
2022-11-08T22:21:01.156Z,24.38
2022-11-08T22:23:30.487Z,25.02
2022-11-08T22:25:59.944Z,22.05
2022-11-08T22:28:31.631Z,24.60
2022-11-08T22:31:00.897Z,20.13
2022-11-08T22:33:30.165Z,23.98
2022-11-08T22:36:04.652Z,24.58
2022-11-08T22:38:33.992Z,23.55
2022-11-08T22:41:03.321Z,22.17
2022-11-08T22:43:35.595Z,22.80
2022-11-08T22:46:05.616Z,26.33
2022-11-08T22:48:34.756Z,23.27
2022-11-08T22:53:44.950Z,27.23
2022-11-08T22:56:14.065Z,26.15
2022-11-08T22:58:45.530Z,27.38
2022-11-08T23:01:16.212Z,26.05
2022-11-08T23:03:47.577Z,26.42
2022-11-08T23:06:17.716Z,30.10
2022-11-08T23:08:48.951Z,24.90
2022-11-08T23:11:33.655Z,25.75
2022-11-08T23:14:17.913Z,28.25
2022-11-08T23:16:47.945Z,23.65
2022-11-08T23:19:38.097Z,25.40
2022-11-08T23:22:26.808Z,25.73
2022-11-08T23:24:56.247Z,24.80
2022-11-08T23:27:38.948Z,25.42
2022-11-08T23:30:26.992Z,23.35
2022-11-08T23:32:56.196Z,27.13
2022-11-08T23:35:25.562Z,22.92
2022-11-08T23:37:54.960Z,24.08
2022-11-08T23:40:37.092Z,24.95
2022-11-08T23:43:25.088Z,24.42
2022-11-08T23:45:56.320Z,22.92
2022-11-08T23:48:26.260Z,23.95
2022-11-08T23:50:56.895Z,20.83
2022-11-08T23:53:26.881Z,27.00
2022-11-08T23:55:56.574Z,21.17
2022-11-08T23:58:30.843Z,25.25
